sensor_id;sensor_type;location;lat;lon;timestamp;pressure;altitude;pressure_sealevel;temperature;humidity
78717;BME280;68045;50.042;14.432;2023-03-13T00:02:10;97767.47;;;7.41;73.52
78717;BME280;68045;50.042;14.432;2023-03-13T00:06:12;97783.47;;;7.52;72.93
78717;BME280;68045;50.042;14.432;2023-03-13T00:10:13;97772.88;;;7.58;72.98
78717;BME280;68045;50.042;14.432;2023-03-13T00:14:14;97793.47;;;7.61;72.01
78717;BME280;68045;50.042;14.432;2023-03-13T00:18:17;97778.28;;;7.63;72.38
78717;BME280;68045;50.042;14.432;2023-03-13T00:22:20;97795.88;;;7.63;71.72
78717;BME280;68045;50.042;14.432;2023-03-13T00:26:23;97777.78;;;7.55;72.60
78717;BME280;68045;50.042;14.432;2023-03-13T00:30:26;97778.91;;;7.47;72.98
78717;BME280;68045;50.042;14.432;2023-03-13T00:34:27;97772.75;;;7.53;72.72
78717;BME280;68045;50.042;14.432;2023-03-13T00:38:30;97775.50;;;7.58;71.78
78717;BME280;68045;50.042;14.432;2023-03-13T00:42:31;97781.13;;;7.62;71.91
78717;BME280;68045;50.042;14.432;2023-03-13T00:46:32;97770.97;;;7.65;71.64
78717;BME280;68045;50.042;14.432;2023-03-13T00:50:34;97766.88;;;7.69;72.01
78717;BME280;68045;50.042;14.432;2023-03-13T00:54:35;97778.63;;;7.67;71.90
78717;BME280;68045;50.042;14.432;2023-03-13T00:58:38;97769.59;;;7.63;72.09
78717;BME280;68045;50.042;14.432;2023-03-13T01:02:41;97765.84;;;7.70;71.25
78717;BME280;68045;50.042;14.432;2023-03-13T01:06:44;97769.28;;;7.71;71.27
78717;BME280;68045;50.042;14.432;2023-03-13T01:10:45;97775.91;;;7.74;71.20
78717;BME280;68045;50.042;14.432;2023-03-13T01:14:48;97774.53;;;7.71;71.22
78717;BME280;68045;50.042;14.432;2023-03-13T01:18:52;97766.78;;;7.76;71.65
78717;BME280;68045;50.042;14.432;2023-03-13T01:22:53;97781.06;;;7.80;71.65
78717;BME280;68045;50.042;14.432;2023-03-13T01:26:54;97779.56;;;7.72;71.02
78717;BME280;68045;50.042;14.432;2023-03-13T01:30:55;97764.38;;;7.75;71.03
78717;BME280;68045;50.042;14.432;2023-03-13T01:34:56;97772.63;;;7.78;71.42
78717;BME280;68045;50.042;14.432;2023-03-13T01:39:00;97761.03;;;7.67;71.46
78717;BME280;68045;50.042;14.432;2023-03-13T01:43:19;97762.94;;;7.60;71.87
78717;BME280;68045;50.042;14.432;2023-03-13T01:47:21;97751.41;;;7.50;71.86
78717;BME280;68045;50.042;14.432;2023-03-13T01:51:56;97741.22;;;7.41;72.80
78717;BME280;68045;50.042;14.432;2023-03-13T01:55:59;97739.25;;;7.37;72.98
78717;BME280;68045;50.042;14.432;2023-03-13T02:00:13;97736.38;;;7.38;72.72
78717;BME280;68045;50.042;14.432;2023-03-13T02:04:17;97731.81;;;7.34;73.27
78717;BME280;68045;50.042;14.432;2023-03-13T02:08:24;97729.41;;;7.32;72.88
78717;BME280;68045;50.042;14.432;2023-03-13T02:12:33;97728.41;;;7.33;72.69
78717;BME280;68045;50.042;14.432;2023-03-13T02:16:35;97724.38;;;7.31;72.71
78717;BME280;68045;50.042;14.432;2023-03-13T02:20:39;97727.56;;;7.33;73.46
78717;BME280;68045;50.042;14.432;2023-03-13T02:28:52;97719.75;;;7.44;72.39
78717;BME280;68045;50.042;14.432;2023-03-13T02:32:54;97722.94;;;7.47;72.93
78717;BME280;68045;50.042;14.432;2023-03-13T02:36:57;97729.50;;;7.56;71.85
78717;BME280;68045;50.042;14.432;2023-03-13T02:41:00;97734.16;;;7.54;71.94
78717;BME280;68045;50.042;14.432;2023-03-13T02:45:04;97728.38;;;7.63;71.33
78717;BME280;68045;50.042;14.432;2023-03-13T02:49:25;97719.69;;;7.63;72.16
78717;BME280;68045;50.042;14.432;2023-03-13T02:53:28;97714.09;;;7.59;71.41
78717;BME280;68045;50.042;14.432;2023-03-13T02:57:30;97714.69;;;7.61;71.90
78717;BME280;68045;50.042;14.432;2023-03-13T03:01:31;97718.56;;;7.70;71.27
78717;BME280;68045;50.042;14.432;2023-03-13T03:05:33;97728.19;;;7.77;70.84
78717;BME280;68045;50.042;14.432;2023-03-13T03:09:34;97713.75;;;7.67;71.41
78717;BME280;68045;50.042;14.432;2023-03-13T03:13:39;97713.47;;;7.76;70.56
78717;BME280;68045;50.042;14.432;2023-03-13T03:17:41;97698.38;;;7.71;70.74
78717;BME280;68045;50.042;14.432;2023-03-13T03:21:43;97696.41;;;7.66;71.08
78717;BME280;68045;50.042;14.432;2023-03-13T03:25:44;97694.56;;;7.67;71.58
78717;BME280;68045;50.042;14.432;2023-03-13T03:29:46;97689.22;;;7.74;71.04
78717;BME280;68045;50.042;14.432;2023-03-13T03:33:47;97687.28;;;7.69;71.36
78717;BME280;68045;50.042;14.432;2023-03-13T03:37:50;97691.41;;;7.77;70.95
78717;BME280;68045;50.042;14.432;2023-03-13T03:41:53;97689.00;;;7.75;71.03
78717;BME280;68045;50.042;14.432;2023-03-13T03:45:55;97691.16;;;7.66;70.69
78717;BME280;68045;50.042;14.432;2023-03-13T03:49:57;97693.66;;;7.61;71.42
78717;BME280;68045;50.042;14.432;2023-03-13T03:53:58;97678.81;;;7.55;71.15
78717;BME280;68045;50.042;14.432;2023-03-13T03:58:00;97686.47;;;7.57;71.79
78717;BME280;68045;50.042;14.432;2023-03-13T04:02:24;97672.75;;;7.55;71.79
78717;BME280;68045;50.042;14.432;2023-03-13T04:06:26;97673.19;;;7.52;71.58
78717;BME280;68045;50.042;14.432;2023-03-13T04:10:27;97662.03;;;7.56;71.58
78717;BME280;68045;50.042;14.432;2023-03-13T04:14:28;97657.22;;;7.53;71.51
78717;BME280;68045;50.042;14.432;2023-03-13T04:18:30;97654.69;;;7.47;71.77
78717;BME280;68045;50.042;14.432;2023-03-13T04:22:31;97645.53;;;7.37;72.13
78717;BME280;68045;50.042;14.432;2023-03-13T04:26:32;97651.00;;;7.36;72.30
78717;BME280;68045;50.042;14.432;2023-03-13T04:30:34;97643.13;;;7.36;72.78
78717;BME280;68045;50.042;14.432;2023-03-13T04:34:56;97637.88;;;7.36;72.38
78717;BME280;68045;50.042;14.432;2023-03-13T04:39:16;97628.75;;;7.27;72.94
78717;BME280;68045;50.042;14.432;2023-03-13T04:43:25;97616.63;;;7.26;73.07
78717;BME280;68045;50.042;14.432;2023-03-13T04:48:02;97618.59;;;7.30;72.15
78717;BME280;68045;50.042;14.432;2023-03-13T04:52:18;97620.53;;;7.35;72.22
78717;BME280;68045;50.042;14.432;2023-03-13T04:56:38;97612.09;;;7.44;72.04
78717;BME280;68045;50.042;14.432;2023-03-13T05:00:57;97614.72;;;7.44;71.19
78717;BME280;68045;50.042;14.432;2023-03-13T05:05:49;97615.44;;;7.40;71.99
78717;BME280;68045;50.042;14.432;2023-03-13T05:10:21;97608.56;;;7.39;71.83
78717;BME280;68045;50.042;14.432;2023-03-13T05:14:45;97600.34;;;7.35;71.35
78717;BME280;68045;50.042;14.432;2023-03-13T05:19:06;97604.19;;;7.33;71.84
78717;BME280;68045;50.042;14.432;2023-03-13T05:23:27;97593.13;;;7.31;71.65
78717;BME280;68045;50.042;14.432;2023-03-13T05:27:50;97572.38;;;7.29;71.58
78717;BME280;68045;50.042;14.432;2023-03-13T05:32:17;97578.09;;;7.38;71.64
78717;BME280;68045;50.042;14.432;2023-03-13T05:37:08;97583.78;;;7.47;70.53
78717;BME280;68045;50.042;14.432;2023-03-13T05:41:50;97554.59;;;7.66;69.62
78717;BME280;68045;50.042;14.432;2023-03-13T05:46:35;97538.38;;;7.69;69.82
78717;BME280;68045;50.042;14.432;2023-03-13T05:51:26;97550.25;;;7.84;68.59
78717;BME280;68045;50.042;14.432;2023-03-13T05:55:56;97544.09;;;7.90;68.34
78717;BME280;68045;50.042;14.432;2023-03-13T06:00:23;97535.25;;;7.96;68.23
78717;BME280;68045;50.042;14.432;2023-03-13T06:04:49;97540.75;;;7.94;68.03
78717;BME280;68045;50.042;14.432;2023-03-13T06:08:53;97540.06;;;7.99;67.94
78717;BME280;68045;50.042;14.432;2023-03-13T06:12:57;97537.09;;;7.95;68.50
78717;BME280;68045;50.042;14.432;2023-03-13T06:17:05;97545.19;;;8.06;67.76
78717;BME280;68045;50.042;14.432;2023-03-13T06:21:09;97549.84;;;8.15;67.25
78717;BME280;68045;50.042;14.432;2023-03-13T06:25:12;97534.44;;;8.19;66.90
78717;BME280;68045;50.042;14.432;2023-03-13T06:29:14;97563.22;;;8.25;66.33
78717;BME280;68045;50.042;14.432;2023-03-13T06:33:15;97524.13;;;8.17;66.87
78717;BME280;68045;50.042;14.432;2023-03-13T06:37:23;97521.19;;;8.14;66.69
78717;BME280;68045;50.042;14.432;2023-03-13T06:41:35;97533.84;;;8.17;66.67
78717;BME280;68045;50.042;14.432;2023-03-13T06:45:47;97521.59;;;8.22;66.35
78717;BME280;68045;50.042;14.432;2023-03-13T06:49:54;97512.91;;;8.34;65.65
78717;BME280;68045;50.042;14.432;2023-03-13T06:54:13;97512.41;;;8.48;65.18
78717;BME280;68045;50.042;14.432;2023-03-13T06:58:56;97502.06;;;8.59;64.46
78717;BME280;68045;50.042;14.432;2023-03-13T07:08:47;97501.97;;;8.82;63.74
78717;BME280;68045;50.042;14.432;2023-03-13T07:25:37;97489.22;;;8.91;63.44
78717;BME280;68045;50.042;14.432;2023-03-13T07:30:28;97477.75;;;8.97;63.51
78717;BME280;68045;50.042;14.432;2023-03-13T07:40:36;97468.47;;;8.94;63.69
78717;BME280;68045;50.042;14.432;2023-03-13T07:44:43;97472.88;;;8.89;64.73
78717;BME280;68045;50.042;14.432;2023-03-13T07:48:49;97486.59;;;8.91;64.13
78717;BME280;68045;50.042;14.432;2023-03-13T07:52:52;97469.28;;;8.95;65.23
78717;BME280;68045;50.042;14.432;2023-03-13T07:56:57;97440.25;;;8.90;65.01
78717;BME280;68045;50.042;14.432;2023-03-13T08:01:00;97443.44;;;9.08;65.09
78717;BME280;68045;50.042;14.432;2023-03-13T08:05:04;97428.50;;;9.31;63.98
78717;BME280;68045;50.042;14.432;2023-03-13T08:09:08;97422.25;;;9.37;64.44
78717;BME280;68045;50.042;14.432;2023-03-13T08:13:10;97423.38;;;9.41;63.34
78717;BME280;68045;50.042;14.432;2023-03-13T08:17:12;97427.41;;;9.49;63.91
78717;BME280;68045;50.042;14.432;2023-03-13T08:21:17;97432.34;;;9.62;63.12
78717;BME280;68045;50.042;14.432;2023-03-13T08:25:22;97396.69;;;9.54;63.65
78717;BME280;68045;50.042;14.432;2023-03-13T08:29:24;97420.47;;;9.59;63.35
78717;BME280;68045;50.042;14.432;2023-03-13T08:33:29;97403.59;;;9.60;63.28
78717;BME280;68045;50.042;14.432;2023-03-13T08:37:30;97389.69;;;9.65;62.67
78717;BME280;68045;50.042;14.432;2023-03-13T08:41:35;97408.69;;;9.67;62.83
78717;BME280;68045;50.042;14.432;2023-03-13T08:45:41;97381.13;;;9.75;62.51
78717;BME280;68045;50.042;14.432;2023-03-13T08:49:43;97380.97;;;9.86;62.27
78717;BME280;68045;50.042;14.432;2023-03-13T08:53:46;97414.31;;;9.98;61.43
78717;BME280;68045;50.042;14.432;2023-03-13T08:57:48;97410.25;;;10.12;60.62
78717;BME280;68045;50.042;14.432;2023-03-13T09:01:50;97393.38;;;10.13;60.67
78717;BME280;68045;50.042;14.432;2023-03-13T09:05:50;97351.50;;;10.16;60.70
78717;BME280;68045;50.042;14.432;2023-03-13T09:09:51;97373.53;;;10.05;61.19
78717;BME280;68045;50.042;14.432;2023-03-13T09:13:54;97353.34;;;10.16;61.88
78717;BME280;68045;50.042;14.432;2023-03-13T09:17:55;97348.09;;;10.21;61.45
78717;BME280;68045;50.042;14.432;2023-03-13T09:21:56;97365.06;;;10.25;61.33
78717;BME280;68045;50.042;14.432;2023-03-13T09:25:57;97394.50;;;10.17;61.89
78717;BME280;68045;50.042;14.432;2023-03-13T09:29:57;97428.22;;;10.15;62.80
78717;BME280;68045;50.042;14.432;2023-03-13T09:33:59;97380.91;;;10.03;63.74
78717;BME280;68045;50.042;14.432;2023-03-13T09:38:00;97381.75;;;10.09;63.78
78717;BME280;68045;50.042;14.432;2023-03-13T09:46:40;97331.03;;;10.24;64.34
78717;BME280;68045;50.042;14.432;2023-03-13T09:50:46;97368.72;;;10.51;64.01
78717;BME280;68045;50.042;14.432;2023-03-13T09:55:02;97355.56;;;10.56;62.78
78717;BME280;68045;50.042;14.432;2023-03-13T10:07:35;97341.00;;;10.86;62.63
78717;BME280;68045;50.042;14.432;2023-03-13T10:11:43;97338.97;;;10.98;61.98
78717;BME280;68045;50.042;14.432;2023-03-13T10:15:51;97323.94;;;11.04;61.81
78717;BME280;68045;50.042;14.432;2023-03-13T10:20:25;97320.19;;;11.42;60.16
78717;BME280;68045;50.042;14.432;2023-03-13T10:24:40;97313.13;;;11.68;59.99
78717;BME280;68045;50.042;14.432;2023-03-13T10:28:42;97315.50;;;11.64;59.55
78717;BME280;68045;50.042;14.432;2023-03-13T10:32:43;97304.13;;;11.69;60.44
78717;BME280;68045;50.042;14.432;2023-03-13T10:36:46;97291.53;;;11.86;59.88
78717;BME280;68045;50.042;14.432;2023-03-13T10:41:18;97293.13;;;12.02;59.32
78717;BME280;68045;50.042;14.432;2023-03-13T10:45:21;97331.16;;;11.81;60.83
78717;BME280;68045;50.042;14.432;2023-03-13T10:49:23;97297.06;;;11.90;59.94
78717;BME280;68045;50.042;14.432;2023-03-13T10:57:33;97291.81;;;12.15;60.95
78717;BME280;68045;50.042;14.432;2023-03-13T11:01:41;97281.78;;;12.43;60.47
78717;BME280;68045;50.042;14.432;2023-03-13T11:05:57;97279.91;;;12.63;60.21
78717;BME280;68045;50.042;14.432;2023-03-13T11:14:22;97293.09;;;12.79;59.81
78717;BME280;68045;50.042;14.432;2023-03-13T11:22:29;97295.69;;;13.04;59.20
78717;BME280;68045;50.042;14.432;2023-03-13T11:26:38;97302.00;;;13.18;59.30
78717;BME280;68045;50.042;14.432;2023-03-13T11:30:59;97263.91;;;13.04;59.99
78717;BME280;68045;50.042;14.432;2023-03-13T11:35:03;97238.75;;;12.97;60.03
78717;BME280;68045;50.042;14.432;2023-03-13T11:48:07;97252.81;;;12.97;60.80
78717;BME280;68045;50.042;14.432;2023-03-13T11:52:21;97257.59;;;12.85;61.33
78717;BME280;68045;50.042;14.432;2023-03-13T11:56:42;97236.69;;;12.83;61.39
78717;BME280;68045;50.042;14.432;2023-03-13T12:04:56;97237.50;;;12.84;61.28
78717;BME280;68045;50.042;14.432;2023-03-13T12:09:27;97233.75;;;12.90;61.38
78717;BME280;68045;50.042;14.432;2023-03-13T12:13:35;97258.91;;;12.87;60.77
78717;BME280;68045;50.042;14.432;2023-03-13T12:17:41;97236.91;;;12.97;60.77
78717;BME280;68045;50.042;14.432;2023-03-13T12:21:51;97237.09;;;13.16;60.41
78717;BME280;68045;50.042;14.432;2023-03-13T12:25:57;97244.00;;;13.12;60.35
78717;BME280;68045;50.042;14.432;2023-03-13T12:30:21;97224.69;;;13.06;60.39
78717;BME280;68045;50.042;14.432;2023-03-13T12:34:40;97221.25;;;13.11;60.05
78717;BME280;68045;50.042;14.432;2023-03-13T12:39:00;97209.28;;;13.18;60.13
78717;BME280;68045;50.042;14.432;2023-03-13T12:47:17;97234.72;;;13.19;60.34
78717;BME280;68045;50.042;14.432;2023-03-13T12:55:44;97225.19;;;13.13;60.27
78717;BME280;68045;50.042;14.432;2023-03-13T12:59:55;97209.53;;;13.17;59.99
78717;BME280;68045;50.042;14.432;2023-03-13T13:04:11;97223.84;;;13.16;60.52
78717;BME280;68045;50.042;14.432;2023-03-13T13:08:23;97234.97;;;13.18;60.04
78717;BME280;68045;50.042;14.432;2023-03-13T13:12:25;97244.75;;;13.28;60.00
78717;BME280;68045;50.042;14.432;2023-03-13T13:16:27;97211.38;;;13.27;60.41
78717;BME280;68045;50.042;14.432;2023-03-13T13:24:47;97209.47;;;13.37;59.55
78717;BME280;68045;50.042;14.432;2023-03-13T13:28:49;97199.91;;;13.41;59.73
78717;BME280;68045;50.042;14.432;2023-03-13T13:32:54;97210.72;;;13.50;59.63
78717;BME280;68045;50.042;14.432;2023-03-13T13:49:17;97183.72;;;13.43;60.11
78717;BME280;68045;50.042;14.432;2023-03-13T13:57:44;97187.25;;;13.33;59.91
78717;BME280;68045;50.042;14.432;2023-03-13T14:06:17;97188.31;;;13.27;60.66
78717;BME280;68045;50.042;14.432;2023-03-13T14:10:28;97176.09;;;13.31;60.40
78717;BME280;68045;50.042;14.432;2023-03-13T14:14:30;97172.91;;;13.34;60.16
78717;BME280;68045;50.042;14.432;2023-03-13T14:18:31;97185.06;;;13.40;60.11
78717;BME280;68045;50.042;14.432;2023-03-13T14:22:44;97167.25;;;13.46;60.07
78717;BME280;68045;50.042;14.432;2023-03-13T14:26:46;97200.59;;;13.57;59.69
78717;BME280;68045;50.042;14.432;2023-03-13T14:30:49;97166.91;;;13.63;59.50
78717;BME280;68045;50.042;14.432;2023-03-13T14:34:49;97162.06;;;13.70;59.49
78717;BME280;68045;50.042;14.432;2023-03-13T14:38:59;97127.66;;;13.94;58.46
78717;BME280;68045;50.042;14.432;2023-03-13T14:43:01;97146.19;;;14.23;57.72
78717;BME280;68045;50.042;14.432;2023-03-13T14:47:16;97122.69;;;15.07;54.79
78717;BME280;68045;50.042;14.432;2023-03-13T14:51:23;97151.47;;;15.00;54.44
78717;BME280;68045;50.042;14.432;2023-03-13T14:55:28;97182.69;;;14.89;55.04
78717;BME280;68045;50.042;14.432;2023-03-13T14:59:32;97138.88;;;14.87;55.08
78717;BME280;68045;50.042;14.432;2023-03-13T15:03:33;97135.44;;;16.40;50.29
78717;BME280;68045;50.042;14.432;2023-03-13T15:07:36;97115.38;;;18.24;45.75
78717;BME280;68045;50.042;14.432;2023-03-13T15:12:11;97085.72;;;18.34;44.88
78717;BME280;68045;50.042;14.432;2023-03-13T15:16:17;97076.28;;;17.97;45.31
78717;BME280;68045;50.042;14.432;2023-03-13T15:20:19;97089.41;;;18.55;44.06
78717;BME280;68045;50.042;14.432;2023-03-13T15:24:22;97062.94;;;17.97;45.38
78717;BME280;68045;50.042;14.432;2023-03-13T15:28:23;97085.09;;;17.08;47.43
78717;BME280;68045;50.042;14.432;2023-03-13T15:32:30;97052.50;;;16.97;48.26
78717;BME280;68045;50.042;14.432;2023-03-13T15:36:32;97067.28;;;17.39;46.90
78717;BME280;68045;50.042;14.432;2023-03-13T15:40:33;97050.22;;;16.40;49.23
78717;BME280;68045;50.042;14.432;2023-03-13T15:44:34;97046.78;;;15.99;50.08
78717;BME280;68045;50.042;14.432;2023-03-13T15:48:35;97045.31;;;15.60;51.49
78717;BME280;68045;50.042;14.432;2023-03-13T15:52:38;97021.66;;;15.26;52.53
78717;BME280;68045;50.042;14.432;2023-03-13T15:56:39;97036.19;;;15.15;52.80
78717;BME280;68045;50.042;14.432;2023-03-13T16:00:41;97043.66;;;14.94;53.38
78717;BME280;68045;50.042;14.432;2023-03-13T16:04:42;97037.22;;;14.81;54.14
78717;BME280;68045;50.042;14.432;2023-03-13T16:08:44;97053.88;;;14.68;54.42
78717;BME280;68045;50.042;14.432;2023-03-13T16:12:45;97035.41;;;14.57;54.99
78717;BME280;68045;50.042;14.432;2023-03-13T16:16:46;97034.97;;;14.50;54.47
78717;BME280;68045;50.042;14.432;2023-03-13T16:20:50;97004.97;;;14.50;55.23
78717;BME280;68045;50.042;14.432;2023-03-13T16:24:51;97018.56;;;14.43;55.35
78717;BME280;68045;50.042;14.432;2023-03-13T16:28:53;97012.56;;;14.38;55.35
78717;BME280;68045;50.042;14.432;2023-03-13T16:32:54;97021.81;;;14.40;55.12
78717;BME280;68045;50.042;14.432;2023-03-13T16:36:55;97006.00;;;14.30;55.59
78717;BME280;68045;50.042;14.432;2023-03-13T16:40:56;97003.19;;;14.21;55.94
78717;BME280;68045;50.042;14.432;2023-03-13T16:44:57;96986.53;;;14.16;56.27
78717;BME280;68045;50.042;14.432;2023-03-13T16:48:58;96987.16;;;14.08;56.32
78717;BME280;68045;50.042;14.432;2023-03-13T16:52:59;96988.19;;;13.88;57.49
78717;BME280;68045;50.042;14.432;2023-03-13T16:57:01;96982.16;;;13.82;57.98
78717;BME280;68045;50.042;14.432;2023-03-13T17:01:04;96984.38;;;13.75;57.81
78717;BME280;68045;50.042;14.432;2023-03-13T17:05:05;96980.19;;;13.69;58.69
78717;BME280;68045;50.042;14.432;2023-03-13T17:09:15;96966.69;;;13.65;58.25
78717;BME280;68045;50.042;14.432;2023-03-13T17:13:16;96959.31;;;13.62;58.35
78717;BME280;68045;50.042;14.432;2023-03-13T17:17:21;96956.16;;;13.60;58.59
78717;BME280;68045;50.042;14.432;2023-03-13T17:21:24;96950.59;;;13.57;58.97
78717;BME280;68045;50.042;14.432;2023-03-13T17:25:25;96921.00;;;13.50;59.09
78717;BME280;68045;50.042;14.432;2023-03-13T17:29:26;96927.69;;;13.42;58.86
78717;BME280;68045;50.042;14.432;2023-03-13T17:33:27;96937.09;;;13.29;59.86
78717;BME280;68045;50.042;14.432;2023-03-13T17:37:28;96934.28;;;13.21;60.36
78717;BME280;68045;50.042;14.432;2023-03-13T17:41:32;96918.94;;;13.12;60.59
78717;BME280;68045;50.042;14.432;2023-03-13T17:45:33;96913.69;;;13.07;60.96
78717;BME280;68045;50.042;14.432;2023-03-13T17:49:36;96909.31;;;12.92;61.53
78717;BME280;68045;50.042;14.432;2023-03-13T17:53:37;96895.44;;;12.77;61.56
78717;BME280;68045;50.042;14.432;2023-03-13T17:57:39;96897.13;;;12.62;62.11
78717;BME280;68045;50.042;14.432;2023-03-13T18:01:40;96897.44;;;12.56;62.57
78717;BME280;68045;50.042;14.432;2023-03-13T18:05:42;96903.56;;;12.51;62.26
78717;BME280;68045;50.042;14.432;2023-03-13T18:09:43;96901.22;;;12.45;62.54
78717;BME280;68045;50.042;14.432;2023-03-13T18:13:47;96904.16;;;12.38;62.94
78717;BME280;68045;50.042;14.432;2023-03-13T18:17:50;96891.38;;;12.50;62.99
78717;BME280;68045;50.042;14.432;2023-03-13T18:21:53;96881.13;;;12.44;62.32
78717;BME280;68045;50.042;14.432;2023-03-13T18:25:54;96876.13;;;12.37;62.83
78717;BME280;68045;50.042;14.432;2023-03-13T18:29:57;96879.38;;;12.24;63.03
78717;BME280;68045;50.042;14.432;2023-03-13T18:33:58;96875.44;;;12.26;62.60
78717;BME280;68045;50.042;14.432;2023-03-13T18:37:59;96873.59;;;12.22;63.27
78717;BME280;68045;50.042;14.432;2023-03-13T18:42:01;96868.31;;;12.17;63.24
78717;BME280;68045;50.042;14.432;2023-03-13T18:46:02;96854.81;;;12.18;62.92
78717;BME280;68045;50.042;14.432;2023-03-13T18:50:15;96849.78;;;12.22;62.71
78717;BME280;68045;50.042;14.432;2023-03-13T18:54:17;96838.41;;;12.21;62.04
78717;BME280;68045;50.042;14.432;2023-03-13T18:58:18;96831.28;;;12.22;62.54
78717;BME280;68045;50.042;14.432;2023-03-13T19:02:19;96818.06;;;12.17;62.02
78717;BME280;68045;50.042;14.432;2023-03-13T19:06:26;96809.84;;;12.18;62.17
78717;BME280;68045;50.042;14.432;2023-03-13T19:10:29;96808.00;;;12.19;62.34
78717;BME280;68045;50.042;14.432;2023-03-13T19:14:31;96807.50;;;12.17;62.24
78717;BME280;68045;50.042;14.432;2023-03-13T19:18:32;96796.41;;;12.15;62.02
78717;BME280;68045;50.042;14.432;2023-03-13T19:22:33;96788.97;;;12.17;62.18
78717;BME280;68045;50.042;14.432;2023-03-13T19:27:00;96788.53;;;12.04;62.86
78717;BME280;68045;50.042;14.432;2023-03-13T19:31:01;96778.44;;;12.12;62.25
78717;BME280;68045;50.042;14.432;2023-03-13T19:35:03;96757.34;;;12.06;62.46
78717;BME280;68045;50.042;14.432;2023-03-13T19:39:11;96765.81;;;12.03;62.25
78717;BME280;68045;50.042;14.432;2023-03-13T19:43:13;96775.06;;;12.06;62.06
78717;BME280;68045;50.042;14.432;2023-03-13T19:47:14;96772.47;;;11.96;63.06
78717;BME280;68045;50.042;14.432;2023-03-13T19:51:15;96744.47;;;11.90;62.55
78717;BME280;68045;50.042;14.432;2023-03-13T19:55:16;96748.75;;;11.86;62.58
78717;BME280;68045;50.042;14.432;2023-03-13T19:59:24;96739.97;;;11.90;62.70
78717;BME280;68045;50.042;14.432;2023-03-13T20:03:28;96716.47;;;11.89;61.86
78717;BME280;68045;50.042;14.432;2023-03-13T20:07:29;96717.03;;;11.86;61.85
78717;BME280;68045;50.042;14.432;2023-03-13T20:11:32;96706.25;;;11.77;62.84
78717;BME280;68045;50.042;14.432;2023-03-13T20:15:33;96688.78;;;11.76;62.52
78717;BME280;68045;50.042;14.432;2023-03-13T20:19:34;96684.53;;;11.80;61.81
78717;BME280;68045;50.042;14.432;2023-03-13T20:23:35;96666.84;;;11.75;61.61
78717;BME280;68045;50.042;14.432;2023-03-13T20:27:36;96655.47;;;11.75;61.48
78717;BME280;68045;50.042;14.432;2023-03-13T20:31:38;96671.91;;;11.72;61.50
78717;BME280;68045;50.042;14.432;2023-03-13T20:35:40;96681.16;;;11.69;60.99
78717;BME280;68045;50.042;14.432;2023-03-13T20:39:41;96656.81;;;11.77;60.02
78717;BME280;68045;50.042;14.432;2023-03-13T20:43:42;96649.19;;;11.71;59.93
78717;BME280;68045;50.042;14.432;2023-03-13T20:47:43;96667.16;;;11.69;59.27
78717;BME280;68045;50.042;14.432;2023-03-13T20:51:44;96659.81;;;11.61;59.68
78717;BME280;68045;50.042;14.432;2023-03-13T20:55:46;96653.22;;;11.63;59.13
78717;BME280;68045;50.042;14.432;2023-03-13T20:59:48;96638.94;;;11.64;58.24
78717;BME280;68045;50.042;14.432;2023-03-13T21:03:49;96618.63;;;11.60;57.90
78717;BME280;68045;50.042;14.432;2023-03-13T21:07:50;96622.31;;;11.59;58.06
78717;BME280;68045;50.042;14.432;2023-03-13T21:11:51;96620.75;;;11.58;57.34
78717;BME280;68045;50.042;14.432;2023-03-13T21:16:00;96614.94;;;11.55;57.54
78717;BME280;68045;50.042;14.432;2023-03-13T21:20:02;96604.47;;;11.45;57.89
78717;BME280;68045;50.042;14.432;2023-03-13T21:24:09;96583.63;;;11.39;58.38
78717;BME280;68045;50.042;14.432;2023-03-13T21:28:10;96587.34;;;11.38;58.08
78717;BME280;68045;50.042;14.432;2023-03-13T21:32:13;96577.34;;;11.35;59.05
78717;BME280;68045;50.042;14.432;2023-03-13T21:36:17;96554.94;;;11.27;59.01
78717;BME280;68045;50.042;14.432;2023-03-13T21:40:20;96547.38;;;11.15;59.04
78717;BME280;68045;50.042;14.432;2023-03-13T21:44:21;96535.56;;;11.08;59.61
78717;BME280;68045;50.042;14.432;2023-03-13T21:48:22;96530.47;;;11.16;58.87
78717;BME280;68045;50.042;14.432;2023-03-13T21:52:23;96537.81;;;11.19;58.25
78717;BME280;68045;50.042;14.432;2023-03-13T21:56:24;96518.84;;;11.17;58.06
78717;BME280;68045;50.042;14.432;2023-03-13T22:00:25;96477.47;;;11.08;59.40
78717;BME280;68045;50.042;14.432;2023-03-13T22:04:26;96496.00;;;11.03;59.56
78717;BME280;68045;50.042;14.432;2023-03-13T22:08:27;96509.69;;;11.05;59.92
78717;BME280;68045;50.042;14.432;2023-03-13T22:12:28;96522.91;;;11.05;60.40
78717;BME280;68045;50.042;14.432;2023-03-13T22:16:29;96521.28;;;11.09;60.45
78717;BME280;68045;50.042;14.432;2023-03-13T22:20:40;96513.38;;;11.09;61.12
78717;BME280;68045;50.042;14.432;2023-03-13T23:02:31;96564.28;;;11.14;61.67
78717;BME280;68045;50.042;14.432;2023-03-13T23:06:32;96584.34;;;11.15;61.70
78717;BME280;68045;50.042;14.432;2023-03-13T23:10:34;96610.69;;;11.20;61.87
78717;BME280;68045;50.042;14.432;2023-03-13T23:14:35;96607.81;;;11.22;62.21
78717;BME280;68045;50.042;14.432;2023-03-13T23:18:37;96621.75;;;11.27;62.29
78717;BME280;68045;50.042;14.432;2023-03-13T23:22:42;96646.06;;;11.30;62.74
78717;BME280;68045;50.042;14.432;2023-03-13T23:27:08;96624.06;;;11.34;62.50
78717;BME280;68045;50.042;14.432;2023-03-13T23:31:30;96608.75;;;11.36;62.76
78717;BME280;68045;50.042;14.432;2023-03-13T23:35:35;96587.16;;;11.29;64.29
78717;BME280;68045;50.042;14.432;2023-03-13T23:39:36;96596.41;;;11.26;65.19
78717;BME280;68045;50.042;14.432;2023-03-13T23:43:39;96583.94;;;11.32;65.64
78717;BME280;68045;50.042;14.432;2023-03-13T23:47:40;96614.06;;;11.31;65.36
78717;BME280;68045;50.042;14.432;2023-03-13T23:51:43;96632.84;;;11.30;66.22
78717;BME280;68045;50.042;14.432;2023-03-13T23:55:44;96663.69;;;11.34;64.88